Time;durP1;ratioP1;P1;durP2;ratioP2;P2;SDS_P1;SDS_P2;PMS_P1;PMS_P2;Temp;Humidity;BMP_temperature;BMP_pressure;BME280_temperature;BME280_humidity;BME280_pressure;Samples;Min_cycle;Max_cycle;Signal;HPM_P1;HPM_P2
2021/07/25 00:02:22;;;;;;;6.90;5.03;;;18.50;99.90;;;;;;5035872;28;20497;-67
2021/07/25 00:04:48;;;;;;;5.70;5.10;;;18.30;99.90;;;;;;5035973;28;20433;-67
2021/07/25 00:07:14;;;;;;;8.50;5.30;;;18.10;99.90;;;;;;5035579;28;20203;-67
2021/07/25 00:09:39;;;;;;;7.70;5.47;;;18.00;99.90;;;;;;5035597;28;20206;-67
2021/07/25 00:12:06;;;;;;;6.20;5.00;;;18.10;99.90;;;;;;5035666;28;20630;-67
2021/07/25 00:14:32;;;;;;;6.47;4.77;;;18.10;99.90;;;;;;5035938;28;20158;-67
2021/07/25 00:16:59;;;;;;;6.00;4.83;;;18.20;99.90;;;;;;5035554;28;20456;-67
2021/07/25 00:19:24;;;;;;;5.63;5.03;;;18.30;99.90;;;;;;5035438;28;20757;-67
2021/07/25 00:21:50;;;;;;;7.60;6.47;;;18.40;99.90;;;;;;5035596;28;20402;-67
2021/07/25 00:24:22;;;;;;;6.90;5.53;;;18.40;99.90;;;;;;5035640;28;20262;-67
2021/07/25 00:26:49;;;;;;;6.50;5.00;;;18.50;99.90;;;;;;5035367;28;20167;-67
2021/07/25 00:29:15;;;;;;;5.70;5.10;;;18.60;99.90;;;;;;5035183;28;20852;-67
2021/07/25 00:31:41;;;;;;;7.17;5.70;;;18.70;99.90;;;;;;5035437;28;20486;-67
2021/07/25 00:34:07;;;;;;;6.53;5.40;;;18.70;99.90;;;;;;5035414;28;20826;-67
2021/07/25 00:36:33;;;;;;;6.00;4.83;;;18.70;99.90;;;;;;5035102;28;20409;-67
2021/07/25 00:38:58;;;;;;;7.67;5.70;;;18.70;99.90;;;;;;5035175;28;20182;-67
2021/07/25 00:41:24;;;;;;;5.63;5.13;;;18.70;99.90;;;;;;5035138;28;20192;-67
2021/07/25 00:43:50;;;;;;;7.87;7.07;;;18.80;99.90;;;;;;5035376;28;20654;-67
2021/07/25 00:46:17;;;;;;;8.00;6.17;;;18.80;99.90;;;;;;5035129;28;20666;-66
2021/07/25 00:48:45;;;;;;;17.00;7.80;;;18.80;99.90;;;;;;5034893;28;20251;-67
2021/07/25 00:51:11;;;;;;;7.10;5.57;;;18.80;99.90;;;;;;5034748;28;20449;-66
2021/07/25 00:53:39;;;;;;;9.00;5.63;;;18.80;99.90;;;;;;5035055;28;20453;-67
2021/07/25 00:56:10;;;;;;;6.20;5.60;;;18.80;99.90;;;;;;5035071;28;20412;-67
2021/07/25 00:58:37;;;;;;;7.60;5.80;;;18.80;99.90;;;;;;5033813;28;20421;-67
2021/07/25 01:01:04;;;;;;;5.27;4.77;;;18.50;99.90;;;;;;5034703;28;20831;-67
2021/07/25 01:03:47;;;;;;;6.73;4.70;;;18.30;99.90;;;;;;5034588;28;20909;-67
2021/07/25 01:06:24;;;;;;;5.43;4.93;;;18.10;99.90;;;;;;5034746;28;20917;-67
2021/07/25 01:09:01;;;;;;;7.40;5.27;;;18.00;99.90;;;;;;5034280;28;20516;-67
2021/07/25 01:11:46;;;;;;;6.03;5.43;;;18.10;99.90;;;;;;5034656;28;20406;-67
2021/07/25 01:14:36;;;;;;;6.70;5.87;;;18.20;99.90;;;;;;5034691;28;20406;-67
2021/07/25 01:17:27;;;;;;;6.37;5.77;;;18.30;99.90;;;;;;5033922;28;20571;-67
2021/07/25 01:19:54;;;;;;;13.60;5.83;;;18.40;99.90;;;;;;5034330;28;20401;-67
2021/07/25 01:22:21;;;;;;;4.60;4.20;;;18.30;99.90;;;;;;5034430;28;20492;-67
2021/07/25 01:24:47;;;;;;;6.30;5.00;;;18.20;99.90;;;;;;5034296;28;20456;-67
2021/07/25 01:27:26;;;;;;;5.20;4.70;;;18.20;99.90;;;;;;5034169;28;20505;-67
2021/07/25 01:29:55;;;;;;;6.00;5.40;;;18.30;99.90;;;;;;5033990;28;20459;-67
2021/07/25 01:32:21;;;;;;;5.77;5.13;;;18.40;99.90;;;;;;5034382;28;20824;-67
2021/07/25 01:34:50;;;;;;;5.70;5.10;;;18.40;99.90;;;;;;5034222;28;20442;-67
2021/07/25 01:37:17;;;;;;;5.70;5.00;;;18.40;99.90;;;;;;5033976;28;20427;-67
2021/07/25 01:39:43;;;;;;;8.63;5.47;;;18.30;99.90;;;;;;5033889;28;20437;-67
2021/07/25 01:42:08;;;;;;;6.57;5.37;;;18.30;99.90;;;;;;5034084;28;20437;-67
2021/07/25 01:44:34;;;;;;;6.20;5.60;;;18.30;99.90;;;;;;5034043;28;20909;-67
2021/07/25 01:47:00;;;;;;;6.70;6.00;;;18.30;99.90;;;;;;5034028;28;20202;-67
2021/07/25 01:49:25;;;;;;;7.20;5.93;;;18.30;99.90;;;;;;5033530;28;20290;-67
2021/07/25 01:51:51;;;;;;;6.27;5.40;;;18.30;99.90;;;;;;5033815;28;20167;-67
2021/07/25 01:54:16;;;;;;;4.80;4.30;;;18.10;99.90;;;;;;5033873;28;20230;-67
2021/07/25 01:56:42;;;;;;;6.90;4.83;;;18.00;99.90;;;;;;5033854;28;20234;-67
2021/07/25 01:59:08;;;;;;;5.37;4.87;;;18.10;99.90;;;;;;5033554;28;20175;-66
2021/07/25 02:01:33;;;;;;;5.07;4.57;;;18.10;99.90;;;;;;5033816;28;20171;-67
2021/07/25 02:03:59;;;;;;;5.37;4.87;;;18.00;99.90;;;;;;5033506;28;20171;-67
2021/07/25 02:06:24;;;;;;;6.93;5.10;;;18.00;99.90;;;;;;5033485;28;20704;-67
2021/07/25 02:08:50;;;;;;;5.67;4.20;;;18.00;99.90;;;;;;5033263;28;20249;-67
2021/07/25 02:11:16;;;;;;;5.77;4.67;;;18.10;99.90;;;;;;5033522;28;20175;-67
2021/07/25 02:13:41;;;;;;;6.90;4.67;;;18.20;99.90;;;;;;5033602;28;20179;-67
2021/07/25 02:16:07;;;;;;;4.30;3.90;;;18.10;99.90;;;;;;5033687;28;20236;-67
2021/07/25 02:18:33;;;;;;;4.70;4.30;;;18.00;99.90;;;;;;5033586;28;20198;-67
2021/07/25 02:20:58;;;;;;;10.30;4.40;;;17.80;99.90;;;;;;5033228;28;20171;-67
2021/07/25 02:23:24;;;;;;;4.83;4.37;;;17.70;99.90;;;;;;5033431;28;20335;-67
2021/07/25 02:25:49;;;;;;;4.07;3.77;;;17.70;99.90;;;;;;5033554;28;20210;-67
2021/07/25 02:28:15;;;;;;;4.77;4.37;;;17.80;99.90;;;;;;5033334;28;20187;-67
2021/07/25 02:30:41;;;;;;;7.03;3.90;;;17.80;99.90;;;;;;5033513;28;20249;-67
2021/07/25 02:33:06;;;;;;;4.77;4.37;;;17.80;99.90;;;;;;5033438;28;20174;-67
2021/07/25 02:35:32;;;;;;;4.50;4.10;;;17.90;99.90;;;;;;5033163;28;20178;-66
2021/07/25 02:37:58;;;;;;;5.27;4.30;;;18.00;99.90;;;;;;5033163;28;20214;-67
2021/07/25 02:40:24;;;;;;;5.37;4.40;;;18.10;99.90;;;;;;5033112;28;20414;-67
2021/07/25 02:42:50;;;;;;;4.77;4.03;;;18.10;99.90;;;;;;5032069;28;20701;-67
2021/07/25 02:45:16;;;;;;;6.67;5.33;;;18.10;99.90;;;;;;5033328;28;20414;-67
2021/07/25 02:47:42;;;;;;;5.43;4.50;;;18.10;99.90;;;;;;5033163;28;20201;-67
2021/07/25 02:50:08;;;;;;;5.93;5.33;;;18.20;99.90;;;;;;5032923;28;20206;-67
2021/07/25 02:52:34;;;;;;;5.17;4.67;;;18.30;99.90;;;;;;5033092;28;20202;-67
2021/07/25 02:54:59;;;;;;;5.37;4.87;;;18.40;99.90;;;;;;5033292;28;20547;-67
2021/07/25 02:57:25;;;;;;;5.30;4.80;;;18.40;99.90;;;;;;5033036;28;20198;-67
2021/07/25 02:59:51;;;;;;;6.93;5.20;;;18.50;99.90;;;;;;5032886;28;20540;-67
2021/07/25 03:02:16;;;;;;;5.33;4.83;;;18.50;99.90;;;;;;5033129;28;20257;-67
2021/07/25 03:04:42;;;;;;;5.93;5.23;;;18.50;99.90;;;;;;5033250;28;20182;-67
2021/07/25 03:07:08;;;;;;;6.00;5.40;;;18.50;99.90;;;;;;5032783;28;20573;-67
2021/07/25 03:09:34;;;;;;;6.53;5.83;;;18.40;99.90;;;;;;5032707;28;20233;-67
2021/07/25 03:11:59;;;;;;;4.87;4.37;;;18.30;99.90;;;;;;5033033;28;20417;-67
2021/07/25 03:14:25;;;;;;;4.77;4.37;;;18.30;99.90;;;;;;5033100;28;20171;-67
2021/07/25 03:16:50;;;;;;;5.80;5.20;;;18.30;99.90;;;;;;5033035;28;20171;-67
2021/07/25 03:19:16;;;;;;;4.30;3.90;;;18.20;99.90;;;;;;5032947;28;20649;-67
2021/07/25 03:21:42;;;;;;;4.93;4.37;;;18.20;99.90;;;;;;5033543;28;20179;-67
2021/07/25 03:24:08;;;;;;;5.07;4.57;;;18.30;99.90;;;;;;5035262;28;20252;-67
2021/07/25 03:26:33;;;;;;;5.73;5.23;;;18.40;99.90;;;;;;5036673;28;20594;-67
2021/07/25 03:28:59;;;;;;;6.33;5.17;;;18.40;99.90;;;;;;5036139;28;20193;-67
2021/07/25 03:31:24;;;;;;;7.60;5.80;;;18.50;99.90;;;;;;5036572;28;20175;-67
2021/07/25 03:33:50;;;;;;;5.00;4.50;;;18.50;99.90;;;;;;5036415;28;20262;-67
2021/07/25 03:36:16;;;;;;;10.27;5.77;;;18.60;99.90;;;;;;5036379;28;20178;-67
2021/07/25 03:38:41;;;;;;;6.90;5.50;;;18.60;99.90;;;;;;5036308;28;20269;-67
2021/07/25 03:41:07;;;;;;;4.97;4.57;;;18.70;99.90;;;;;;5034810;28;20183;-67
2021/07/25 03:43:33;;;;;;;7.40;5.90;;;18.70;99.90;;;;;;5036348;28;20175;-67
2021/07/25 03:45:58;;;;;;;6.50;5.47;;;18.70;99.90;;;;;;5036336;28;20175;-68
2021/07/25 03:48:25;;;;;;;6.33;5.70;;;18.70;99.90;;;;;;5036063;28;20214;-67
2021/07/25 03:50:52;;;;;;;5.40;4.90;;;18.70;99.90;;;;;;5035926;28;20217;-67
2021/07/25 03:53:19;;;;;;;6.80;5.30;;;18.60;99.90;;;;;;5036230;28;20401;-67
2021/07/25 03:55:45;;;;;;;5.50;4.93;;;18.50;99.90;;;;;;5035944;28;20494;-67
2021/07/25 03:58:11;;;;;;;4.87;4.40;;;18.50;99.90;;;;;;5035909;28;20429;-67
2021/07/25 04:00:36;;;;;;;5.03;4.50;;;18.50;99.90;;;;;;5035632;28;20425;-67
2021/07/25 04:03:02;;;;;;;6.10;5.10;;;18.60;99.90;;;;;;5035831;28;20418;-67
2021/07/25 04:05:28;;;;;;;6.70;5.50;;;18.60;99.90;;;;;;5035686;28;20253;-67
2021/07/25 04:07:54;;;;;;;6.17;5.57;;;18.60;99.90;;;;;;5035865;28;20202;-66
2021/07/25 04:10:20;;;;;;;7.10;5.17;;;18.60;99.90;;;;;;5035603;28;20197;-67
2021/07/25 04:12:46;;;;;;;5.63;5.07;;;18.70;99.90;;;;;;5035800;28;20397;-67
2021/07/25 04:15:12;;;;;;;5.17;4.77;;;18.60;99.90;;;;;;5035757;28;20892;-67
2021/07/25 04:17:38;;;;;;;8.40;5.80;;;18.40;99.90;;;;;;5035501;28;20186;-67
2021/07/25 04:20:05;;;;;;;6.00;5.40;;;18.30;99.90;;;;;;5035449;28;20417;-67
2021/07/25 04:22:38;;;;;;;4.23;3.83;;;18.30;99.90;;;;;;5035475;28;20416;-67
2021/07/25 04:25:04;;;;;;;6.30;4.47;;;18.10;99.90;;;;;;5035605;28;20512;-67
2021/07/25 04:27:31;;;;;;;4.20;3.83;;;18.20;99.90;;;;;;5035393;28;20487;-67
2021/07/25 04:29:57;;;;;;;5.23;4.73;;;18.20;99.90;;;;;;5033833;28;20872;-67
2021/07/25 04:32:24;;;;;;;6.33;4.10;;;18.20;99.90;;;;;;5035238;28;20409;-67
2021/07/25 04:34:50;;;;;;;4.53;4.13;;;18.30;99.90;;;;;;5035449;28;20406;-67
2021/07/25 04:37:28;;;;;;;5.57;5.07;;;18.40;99.90;;;;;;5035192;28;20434;-67
2021/07/25 04:39:54;;;;;;;10.03;5.60;;;18.50;99.90;;;;;;5035075;28;20930;-67
2021/07/25 04:42:24;;;;;;;5.57;5.07;;;18.60;99.90;;;;;;5035240;28;20890;-67
2021/07/25 04:44:58;;;;;;;5.60;4.50;;;18.60;99.90;;;;;;5035330;28;20495;-67
2021/07/25 04:47:33;;;;;;;5.47;4.30;;;18.70;99.90;;;;;;5035082;28;20571;-66
2021/07/25 04:50:07;;;;;;;6.03;4.60;;;18.70;99.90;;;;;;5034753;28;20480;-67
2021/07/25 04:52:59;;;;;;;6.73;5.33;;;18.70;99.90;;;;;;5035109;28;20413;-67
2021/07/25 04:55:25;;;;;;;5.70;3.83;;;18.80;99.90;;;;;;5035084;28;20767;-67
2021/07/25 04:58:03;;;;;;;6.47;5.10;;;18.70;99.90;;;;;;5035107;28;20425;-67
2021/07/25 05:00:30;;;;;;;6.60;4.90;;;18.80;99.90;;;;;;5034818;28;20430;-67
2021/07/25 05:03:02;;;;;;;5.10;4.27;;;18.90;99.90;;;;;;5034918;28;20484;-67
2021/07/25 05:05:28;;;;;;;4.37;3.97;;;18.90;99.90;;;;;;5034551;28;20409;-67
2021/07/25 05:07:59;;;;;;;5.80;5.23;;;18.90;99.90;;;;;;5034745;28;20472;-67
2021/07/25 05:10:26;;;;;;;6.33;5.33;;;19.00;99.90;;;;;;5034543;28;20462;-67
2021/07/25 05:13:11;;;;;;;5.50;4.97;;;18.90;99.90;;;;;;5034609;28;20417;-67
2021/07/25 05:15:44;;;;;;;6.17;5.63;;;18.90;99.90;;;;;;5034619;28;20488;-67
2021/07/25 05:18:20;;;;;;;6.07;5.43;;;19.00;99.90;;;;;;5034319;28;20431;-67
2021/07/25 05:21:23;;;;;;;5.47;4.97;;;19.00;99.90;;;;;;5034340;28;20812;-67
2021/07/25 05:23:53;;;;;;;5.43;4.77;;;19.10;99.90;;;;;;5034555;28;20413;-67
2021/07/25 05:26:25;;;;;;;6.70;4.83;;;19.10;99.90;;;;;;5034414;28;20503;-67
2021/07/25 05:28:56;;;;;;;5.57;4.43;;;19.10;99.90;;;;;;5034212;28;20429;-67
2021/07/25 05:31:29;;;;;;;5.20;4.70;;;19.20;99.90;;;;;;5034238;28;20449;-67
2021/07/25 05:33:54;;;;;;;5.50;4.97;;;19.20;99.90;;;;;;5034328;28;20405;-67
2021/07/25 05:36:20;;;;;;;7.20;5.27;;;19.20;99.90;;;;;;5034146;28;20757;-67
2021/07/25 05:38:46;;;;;;;6.60;5.77;;;19.20;99.90;;;;;;5034062;28;20191;-67
2021/07/25 05:41:11;;;;;;;5.43;4.77;;;19.10;99.90;;;;;;5034062;28;20170;-67
2021/07/25 05:43:37;;;;;;;5.10;4.60;;;19.10;99.90;;;;;;5034149;28;20677;-67
2021/07/25 05:46:02;;;;;;;5.70;4.50;;;19.20;99.90;;;;;;5033804;28;20175;-67
2021/07/25 05:48:28;;;;;;;4.90;4.23;;;19.40;99.90;;;;;;5034000;28;20191;-67
2021/07/25 05:50:53;;;;;;;5.40;4.90;;;19.40;99.90;;;;;;5033768;28;20203;-67
2021/07/25 05:53:19;;;;;;;5.37;4.83;;;19.20;99.90;;;;;;5033776;28;20509;-67
2021/07/25 05:55:45;;;;;;;4.20;3.80;;;19.20;99.90;;;;;;5033963;28;20650;-66
2021/07/25 05:58:10;;;;;;;3.73;3.43;;;19.10;99.90;;;;;;5033795;28;20192;-67
2021/07/25 06:00:36;;;;;;;6.50;3.57;;;19.10;99.90;;;;;;5033494;28;20179;-67
2021/07/25 06:03:03;;;;;;;5.03;3.67;;;19.20;99.90;;;;;;5033894;28;20180;-67
2021/07/25 06:05:30;;;;;;;3.87;3.50;;;19.20;99.90;;;;;;5033568;28;20190;-67
2021/07/25 06:07:57;;;;;;;5.27;4.67;;;19.00;99.90;;;;;;5033685;28;20431;-67
2021/07/25 06:10:25;;;;;;;5.00;4.50;;;19.00;99.90;;;;;;5033381;28;20820;-67
2021/07/25 06:12:51;;;;;;;4.67;4.27;;;19.00;99.90;;;;;;5033745;28;20402;-67
2021/07/25 06:15:18;;;;;;;6.50;5.70;;;19.10;99.90;;;;;;5033582;28;20468;-67
2021/07/25 06:17:44;;;;;;;5.40;4.40;;;19.10;99.90;;;;;;5033478;28;20429;-67
2021/07/25 06:20:10;;;;;;;4.40;4.00;;;19.00;99.90;;;;;;5033255;28;20413;-67
2021/07/25 06:22:40;;;;;;;5.70;4.17;;;18.90;99.90;;;;;;5033518;28;20415;-67
2021/07/25 06:25:06;;;;;;;5.00;4.53;;;18.90;99.90;;;;;;5033442;28;20900;-67
2021/07/25 06:27:32;;;;;;;5.60;4.57;;;18.90;99.90;;;;;;5033486;28;20579;-67
2021/07/25 06:29:57;;;;;;;5.10;3.87;;;18.80;99.90;;;;;;5033169;28;20552;-67
2021/07/25 06:32:23;;;;;;;6.60;4.40;;;18.80;99.90;;;;;;5033422;28;20591;-67
2021/07/25 06:34:49;;;;;;;4.53;4.13;;;18.70;99.90;;;;;;5033408;28;20171;-67
2021/07/25 06:37:14;;;;;;;5.43;4.93;;;18.80;99.90;;;;;;5033171;28;20199;-67
2021/07/25 06:39:40;;;;;;;6.00;5.30;;;18.90;99.90;;;;;;5033128;28;20668;-67
2021/07/25 06:42:08;;;;;;;5.27;4.87;;;19.00;99.90;;;;;;5033285;28;20184;-67
2021/07/25 06:44:34;;;;;;;6.13;5.53;;;19.00;99.90;;;;;;5033357;28;20203;-67
2021/07/25 06:46:59;;;;;;;4.20;3.80;;;19.00;99.90;;;;;;5033318;28;20487;-67
2021/07/25 06:49:25;;;;;;;5.57;4.87;;;19.10;99.90;;;;;;5032878;28;20558;-67
2021/07/25 06:51:50;;;;;;;5.30;4.10;;;19.20;99.90;;;;;;5033106;28;20203;-67
2021/07/25 06:54:16;;;;;;;4.73;4.33;;;19.20;99.90;;;;;;5033166;28;20166;-67
2021/07/25 06:56:42;;;;;;;5.37;3.80;;;19.20;99.90;;;;;;5033865;28;20181;-67
2021/07/25 06:59:07;;;;;;;5.50;4.70;;;19.30;99.90;;;;;;5036981;28;20231;-67
2021/07/25 07:01:33;;;;;;;4.20;3.83;;;19.40;99.90;;;;;;5037207;28;20179;-67
2021/07/25 07:03:58;;;;;;;4.77;4.37;;;19.50;99.90;;;;;;5036892;28;20171;-67
2021/07/25 07:06:24;;;;;;;5.13;4.23;;;19.50;99.90;;;;;;5037092;28;20717;-67
2021/07/25 07:08:50;;;;;;;6.63;4.60;;;19.60;99.90;;;;;;5036669;28;20274;-68
2021/07/25 07:11:16;;;;;;;3.80;3.47;;;19.80;99.90;;;;;;5036831;28;20257;-67
2021/07/25 07:13:42;;;;;;;5.00;4.13;;;19.90;99.90;;;;;;5036935;28;20173;-67
2021/07/25 07:16:07;;;;;;;4.03;3.37;;;20.00;99.90;;;;;;5036968;28;20465;-67
2021/07/25 07:18:33;;;;;;;3.60;3.30;;;20.10;99.90;;;;;;5036650;28;20549;-67
2021/07/25 07:20:58;;;;;;;3.20;3.00;;;20.10;99.90;;;;;;5036463;28;20181;-67
2021/07/25 07:23:25;;;;;;;3.87;3.40;;;20.00;99.90;;;;;;5036619;28;20235;-67
2021/07/25 07:25:53;;;;;;;3.50;3.20;;;19.90;99.90;;;;;;5036647;28;20217;-67
2021/07/25 07:28:21;;;;;;;4.93;3.07;;;19.80;99.90;;;;;;5036516;28;20530;-67
2021/07/25 07:30:47;;;;;;;3.77;3.47;;;19.70;99.90;;;;;;5036377;28;20456;-67
2021/07/25 07:33:20;;;;;;;4.30;3.90;;;19.50;99.90;;;;;;5036612;28;20435;-67
2021/07/25 07:35:47;;;;;;;4.47;4.03;;;19.40;99.90;;;;;;5036597;28;20405;-67
2021/07/25 07:38:14;;;;;;;3.77;3.47;;;19.40;99.90;;;;;;5036328;28;20433;-67
2021/07/25 07:40:41;;;;;;;3.07;2.80;;;19.40;99.90;;;;;;5036247;28;20409;-67
2021/07/25 07:43:08;;;;;;;4.17;3.00;;;19.40;99.90;;;;;;5036401;28;20466;-67
2021/07/25 07:45:35;;;;;;;3.83;3.20;;;19.30;99.90;;;;;;5035066;28;20428;-67
2021/07/25 07:48:01;;;;;;;2.80;2.60;;;19.30;99.90;;;;;;5036166;28;20437;-67
2021/07/25 07:50:26;;;;;;;3.90;3.53;;;19.20;99.90;;;;;;5035874;28;20825;-67
2021/07/25 07:52:52;;;;;;;3.37;3.10;;;19.20;99.90;;;;;;5036113;28;20175;-67
2021/07/25 07:55:18;;;;;;;3.60;3.30;;;19.20;99.90;;;;;;5036234;28;20180;-67
2021/07/25 07:57:44;;;;;;;4.00;3.70;;;19.30;99.90;;;;;;5036072;28;20211;-67
2021/07/25 08:00:11;;;;;;;4.40;4.00;;;19.40;99.90;;;;;;5035723;28;20209;-67
2021/07/25 08:02:37;;;;;;;3.53;3.23;;;19.50;99.90;;;;;;5035788;28;20883;-67
2021/07/25 08:05:03;;;;;;;3.90;3.40;;;19.60;99.90;;;;;;5035876;28;20408;-67
2021/07/25 08:07:29;;;;;;;5.50;4.57;;;19.60;99.90;;;;;;5035308;28;20223;-67
2021/07/25 08:09:55;;;;;;;4.50;3.40;;;19.50;99.90;;;;;;5035566;28;20459;-67
2021/07/25 08:12:20;;;;;;;4.47;4.07;;;19.50;99.90;;;;;;5035814;28;20735;-67
2021/07/25 08:14:46;;;;;;;5.20;4.00;;;19.50;99.90;;;;;;5035610;28;20198;-67
2021/07/25 08:17:12;;;;;;;4.53;4.00;;;19.40;99.90;;;;;;5035460;28;20186;-67
2021/07/25 08:19:38;;;;;;;4.00;2.93;;;19.30;99.90;;;;;;5035313;28;20812;-67
2021/07/25 08:22:05;;;;;;;6.23;4.67;;;19.20;99.90;;;;;;5035494;28;20187;-68
2021/07/25 08:24:30;;;;;;;4.27;3.87;;;19.10;99.90;;;;;;5035439;28;20173;-67
2021/07/25 08:26:56;;;;;;;5.17;4.67;;;19.20;99.90;;;;;;5035382;28;20420;-67
2021/07/25 08:29:22;;;;;;;3.90;3.47;;;19.20;99.90;;;;;;5034905;28;20182;-66
2021/07/25 08:31:47;;;;;;;6.00;4.90;;;19.20;99.90;;;;;;5035143;28;20172;-66
2021/07/25 08:34:13;;;;;;;6.30;4.40;;;19.20;99.90;;;;;;5035250;28;20163;-67
2021/07/25 08:36:39;;;;;;;4.90;4.40;;;19.30;99.90;;;;;;5035164;28;20249;-67
2021/07/25 08:39:05;;;;;;;5.50;4.50;;;19.30;99.90;;;;;;5034918;28;20263;-67
2021/07/25 08:41:53;;;;;;;4.03;3.63;;;19.30;99.90;;;;;;5035196;28;20812;-67
2021/07/25 08:44:36;;;;;;;4.30;3.83;;;19.30;99.90;;;;;;5035005;28;20177;-67
2021/07/25 08:47:02;;;;;;;4.10;3.70;;;19.30;99.90;;;;;;5035070;28;20409;-67
2021/07/25 08:49:55;;;;;;;4.33;3.93;;;19.30;99.90;;;;;;5034633;28;20504;-67
2021/07/25 08:52:24;;;;;;;4.70;4.20;;;19.20;99.90;;;;;;5030554;28;20427;-67
2021/07/25 08:54:51;;;;;;;4.00;3.60;;;19.20;99.90;;;;;;5035053;28;20438;-66
2021/07/25 08:57:24;;;;;;;8.30;3.80;;;19.30;99.90;;;;;;5034746;28;20500;-67
2021/07/25 08:59:54;;;;;;;5.03;3.83;;;19.30;99.90;;;;;;5033319;28;20411;-68
2021/07/25 09:02:28;;;;;;;7.40;3.90;;;19.40;99.90;;;;;;5034809;28;20840;-67
2021/07/25 09:04:55;;;;;;;5.47;3.80;;;19.40;99.90;;;;;;5034801;28;20433;-67
2021/07/25 09:07:23;;;;;;;6.37;4.77;;;19.30;99.90;;;;;;5033171;28;20454;-67
2021/07/25 09:09:55;;;;;;;6.40;4.97;;;19.30;99.90;;;;;;5034312;28;20462;-67
2021/07/25 09:12:22;;;;;;;5.43;4.80;;;19.30;99.90;;;;;;5034700;28;20394;-67
2021/07/25 09:14:53;;;;;;;5.00;4.53;;;19.20;99.90;;;;;;5034381;28;20402;-67
2021/07/25 09:17:19;;;;;;;5.53;4.47;;;19.20;99.90;;;;;;5034495;28;20475;-67
2021/07/25 09:20:24;;;;;;;4.80;4.40;;;19.20;99.90;;;;;;5033358;28;20410;-67
2021/07/25 09:22:49;;;;;;;10.57;5.23;;;19.10;99.90;;;;;;4992887;28;20418;-68
2021/07/25 09:25:20;;;;;;;5.23;4.53;;;19.10;99.90;;;;;;4993008;28;20422;-67
2021/07/25 09:27:58;;;;;;;5.07;4.03;;;19.10;99.90;;;;;;5003420;28;20214;-67
2021/07/25 09:30:28;;;;;;;7.63;4.27;;;19.00;99.90;;;;;;5033969;28;20449;-67
2021/07/25 09:32:54;;;;;;;5.27;4.67;;;19.10;99.90;;;;;;5034294;28;20393;-67
2021/07/25 09:35:27;;;;;;;6.40;4.43;;;19.20;99.90;;;;;;5033968;28;20406;-66
2021/07/25 09:37:53;;;;;;;4.70;4.03;;;19.30;99.90;;;;;;5034057;28;20431;-67
2021/07/25 09:40:27;;;;;;;6.13;3.73;;;19.50;99.90;;;;;;5033888;28;20494;-67
2021/07/25 09:43:11;;;;;;;5.37;4.10;;;19.50;99.90;;;;;;5034150;28;20457;-67
2021/07/25 09:45:54;;;;;;;3.70;3.00;;;19.60;99.90;;;;;;5034040;28;20986;-67
2021/07/25 09:48:21;;;;;;;3.60;3.30;;;19.60;99.90;;;;;;5033785;28;20427;-67
2021/07/25 09:50:48;;;;;;;3.60;3.30;;;19.60;99.90;;;;;;5033477;28;20890;-67
2021/07/25 09:53:15;;;;;;;4.47;4.07;;;19.60;99.90;;;;;;5033667;28;20404;-67
2021/07/25 09:55:41;;;;;;;4.03;3.70;;;19.80;99.90;;;;;;5033905;28;20398;-67
2021/07/25 09:58:09;;;;;;;4.10;3.33;;;19.90;99.90;;;;;;5033841;28;20835;-67
2021/07/25 10:00:46;;;;;;;6.43;3.53;;;20.00;99.90;;;;;;5033469;28;20178;-67
2021/07/25 10:03:17;;;;;;;6.20;4.23;;;20.10;99.90;;;;;;5033576;28;20456;-67
2021/07/25 10:05:43;;;;;;;4.10;3.70;;;20.00;99.90;;;;;;5032167;28;20939;-67
2021/07/25 10:08:15;;;;;;;4.70;3.87;;;20.10;99.90;;;;;;5033464;28;20425;-67
2021/07/25 10:10:46;;;;;;;4.27;3.87;;;20.10;99.90;;;;;;5033281;28;20201;-67
2021/07/25 10:13:32;;;;;;;5.40;3.33;;;20.20;99.90;;;;;;5033501;28;20848;-67
2021/07/25 10:15:59;;;;;;;3.90;3.23;;;20.30;99.90;;;;;;5033442;28;20440;-67
2021/07/25 10:18:27;;;;;;;3.87;3.43;;;20.30;99.90;;;;;;5033539;28;20441;-67
2021/07/25 10:20:58;;;;;;;6.00;3.80;;;20.10;99.90;;;;;;5033226;28;20403;-67
2021/07/25 10:23:47;;;;;;;4.20;3.80;;;19.60;99.90;;;;;;5033428;28;20398;-67
2021/07/25 10:26:13;;;;;;;4.03;3.63;;;19.60;99.90;;;;;;5033681;28;20508;-67
2021/07/25 10:28:41;;;;;;;3.63;3.33;;;19.50;99.90;;;;;;5033327;28;20425;-67
2021/07/25 10:31:08;;;;;;;3.40;3.10;;;19.60;99.90;;;;;;5032977;28;20453;-67
2021/07/25 10:33:38;;;;;;;4.70;4.20;;;19.90;99.90;;;;;;5033208;28;20431;-67
2021/07/25 10:36:04;;;;;;;4.20;3.80;;;20.20;99.90;;;;;;5033148;28;20446;-67
2021/07/25 10:38:30;;;;;;;4.23;3.83;;;20.50;99.90;;;;;;5033048;28;20440;-67
2021/07/25 10:40:57;;;;;;;3.73;3.37;;;20.60;99.90;;;;;;5032988;28;20403;-67
2021/07/25 10:43:25;;;;;;;5.93;3.40;;;20.70;99.90;;;;;;5033168;28;20173;-67
2021/07/25 10:46:17;;;;;;;4.40;3.33;;;20.70;99.90;;;;;;5033229;28;20413;-67
2021/07/25 10:49:03;;;;;;;4.33;3.33;;;20.60;99.90;;;;;;5032895;28;20429;-67
2021/07/25 10:51:29;;;;;;;3.90;3.60;;;20.50;99.90;;;;;;5032995;28;20482;-67
2021/07/25 10:54:23;;;;;;;4.17;3.77;;;20.40;99.90;;;;;;5033200;28;20401;-67
2021/07/25 10:57:11;;;;;;;3.60;3.30;;;20.40;99.90;;;;;;5032919;28;20407;-67
2021/07/25 10:59:38;;;;;;;4.10;3.70;;;20.50;99.90;;;;;;5033016;28;20415;-67
2021/07/25 11:02:04;;;;;;;4.30;3.47;;;20.50;99.90;;;;;;5032979;28;20405;-67
2021/07/25 11:04:48;;;;;;;3.93;3.50;;;20.40;99.90;;;;;;5033000;28;20437;-67
2021/07/25 11:07:23;;;;;;;3.20;2.90;;;20.60;99.90;;;;;;5032875;28;20445;-67
2021/07/25 11:10:11;;;;;;;4.00;2.80;;;20.70;99.90;;;;;;5032653;28;20456;-67
2021/07/25 11:12:51;;;;;;;4.57;2.63;;;20.60;99.90;;;;;;5032879;28;20401;-67
2021/07/25 11:15:35;;;;;;;3.57;2.93;;;20.70;99.90;;;;;;5033051;28;20412;-67
2021/07/25 11:18:05;;;;;;;3.70;2.90;;;21.10;99.90;;;;;;5032845;28;20430;-67
2021/07/25 11:20:55;;;;;;;2.83;2.63;;;21.40;99.90;;;;;;5032745;28;20394;-67
2021/07/25 11:23:20;;;;;;;2.90;2.63;;;21.80;99.60;;;;;;5032991;28;20425;-67
2021/07/25 11:25:52;;;;;;;2.90;2.67;;;21.90;99.60;;;;;;5033076;28;20957;-67
2021/07/25 11:28:40;;;;;;;3.63;3.33;;;21.80;98.80;;;;;;5032833;28;20567;-67
2021/07/25 11:31:13;;;;;;;3.00;2.80;;;21.50;99.90;;;;;;5032649;28;20456;-67
2021/07/25 11:33:45;;;;;;;3.00;2.70;;;21.10;99.90;;;;;;5032867;28;20407;-67
2021/07/25 11:36:22;;;;;;;4.00;3.43;;;20.80;99.90;;;;;;5033012;28;20406;-68
2021/07/25 11:39:01;;;;;;;3.50;3.20;;;20.60;99.90;;;;;;5032702;28;20477;-67
2021/07/25 11:41:31;;;;;;;3.67;3.27;;;20.40;99.90;;;;;;5033139;28;20412;-67
2021/07/25 11:44:09;;;;;;;5.40;4.07;;;20.30;99.90;;;;;;5035122;28;20405;-67
2021/07/25 11:46:40;;;;;;;3.73;3.00;;;20.50;99.90;;;;;;5036434;28;20415;-67
2021/07/25 11:49:28;;;;;;;3.47;3.17;;;20.60;99.90;;;;;;5035997;28;20429;-67
2021/07/25 11:51:55;;;;;;;3.30;3.10;;;20.70;99.90;;;;;;5035143;28;20931;-67
2021/07/25 11:54:27;;;;;;;7.60;4.13;;;20.90;99.90;;;;;;5036125;28;20889;-67
2021/07/25 11:56:55;;;;;;;4.20;3.07;;;21.00;99.90;;;;;;5036089;28;20397;-67
2021/07/25 11:59:21;;;;;;;4.07;3.70;;;21.10;99.90;;;;;;5035771;28;20417;-67
2021/07/25 12:01:47;;;;;;;5.53;4.13;;;20.90;99.90;;;;;;5036529;28;20479;-67
2021/07/25 12:04:33;;;;;;;3.40;3.10;;;20.80;99.90;;;;;;5035880;28;20396;-67
2021/07/25 12:06:59;;;;;;;3.40;3.10;;;20.90;99.90;;;;;;5035843;28;20178;-67
2021/07/25 12:09:24;;;;;;;4.30;3.20;;;20.90;99.90;;;;;;5035573;28;20492;-67
2021/07/25 12:12:06;;;;;;;2.83;2.63;;;20.90;99.90;;;;;;5035913;28;20881;-67
2021/07/25 12:14:34;;;;;;;3.37;3.07;;;21.30;99.90;;;;;;5036000;28;20174;-67
2021/07/25 12:17:00;;;;;;;2.83;2.63;;;21.30;99.60;;;;;;5035557;28;20398;-68
2021/07/25 12:19:25;;;;;;;3.87;3.20;;;21.70;99.90;;;;;;5035745;28;20778;-67
2021/07/25 12:22:05;;;;;;;2.90;2.63;;;21.90;98.20;;;;;;5035565;28;20914;-67
2021/07/25 12:24:32;;;;;;;2.70;2.50;;;22.30;97.50;;;;;;5035657;28;20166;-67
2021/07/25 12:27:00;;;;;;;3.63;3.10;;;22.80;97.20;;;;;;5035629;28;20413;-67
2021/07/25 12:29:43;;;;;;;3.27;2.97;;;23.40;97.10;;;;;;5035299;28;20412;-68
2021/07/25 12:32:33;;;;;;;2.47;2.20;;;23.90;95.60;;;;;;5035510;28;20393;-67
2021/07/25 12:35:11;;;;;;;3.30;3.00;;;24.10;94.00;;;;;;5030495;28;20950;-67
2021/07/25 12:37:44;;;;;;;3.43;2.50;;;24.40;95.70;;;;;;5035237;28;20429;-68
2021/07/25 12:40:15;;;;;;;3.83;3.43;;;24.80;94.20;;;;;;5035149;28;20430;-67
2021/07/25 12:42:46;;;;;;;3.10;2.90;;;25.00;96.70;;;;;;5035160;28;20397;-67
2021/07/25 12:45:22;;;;;;;2.97;2.70;;;24.70;92.50;;;;;;5034098;28;20959;-67
2021/07/25 12:47:48;;;;;;;3.20;2.70;;;24.40;94.80;;;;;;5035057;28;20422;-67
2021/07/25 12:50:14;;;;;;;4.40;3.83;;;24.10;95.50;;;;;;5033560;28;20497;-67
2021/07/25 12:52:40;;;;;;;6.00;3.17;;;23.80;93.90;;;;;;5035057;28;20479;-67
2021/07/25 12:55:07;;;;;;;3.73;3.43;;;23.30;98.10;;;;;;5033866;28;20368;-67
2021/07/25 12:57:33;;;;;;;4.27;3.70;;;22.90;97.20;;;;;;5034993;28;20193;-67